sensor_id;sensor_type;location;lat;lon;timestamp;P1;durP1;ratioP1;P2;durP2;ratioP2
27223;SDS011;14965;50.660;13.226;2023-05-07T00:01:24;52.75;;;26.75;;
27223;SDS011;14965;50.660;13.226;2023-05-07T00:03:50;39.78;;;23.70;;
27223;SDS011;14965;50.660;13.226;2023-05-07T00:06:16;43.20;;;26.10;;
27223;SDS011;14965;50.660;13.226;2023-05-07T00:08:42;43.92;;;24.98;;
27223;SDS011;14965;50.660;13.226;2023-05-07T00:11:08;40.15;;;24.77;;
27223;SDS011;14965;50.660;13.226;2023-05-07T00:13:34;45.80;;;26.17;;
27223;SDS011;14965;50.660;13.226;2023-05-07T00:16:01;38.70;;;24.08;;
27223;SDS011;14965;50.660;13.226;2023-05-07T00:18:27;47.55;;;25.33;;
27223;SDS011;14965;50.660;13.226;2023-05-07T00:20:53;46.78;;;25.77;;
27223;SDS011;14965;50.660;13.226;2023-05-07T00:23:19;54.90;;;26.83;;
27223;SDS011;14965;50.660;13.226;2023-05-07T00:25:44;40.35;;;23.85;;
27223;SDS011;14965;50.660;13.226;2023-05-07T00:28:10;46.35;;;24.63;;
27223;SDS011;14965;50.660;13.226;2023-05-07T00:30:36;51.78;;;25.63;;
27223;SDS011;14965;50.660;13.226;2023-05-07T00:33:04;45.80;;;27.25;;
27223;SDS011;14965;50.660;13.226;2023-05-07T00:35:29;52.90;;;28.75;;
27223;SDS011;14965;50.660;13.226;2023-05-07T00:37:55;57.22;;;30.48;;
27223;SDS011;14965;50.660;13.226;2023-05-07T00:40:21;58.15;;;29.83;;
27223;SDS011;14965;50.660;13.226;2023-05-07T00:42:47;54.42;;;30.00;;
27223;SDS011;14965;50.660;13.226;2023-05-07T00:45:13;52.88;;;29.27;;
27223;SDS011;14965;50.660;13.226;2023-05-07T00:47:39;59.03;;;31.17;;
27223;SDS011;14965;50.660;13.226;2023-05-07T00:50:09;60.47;;;30.85;;
27223;SDS011;14965;50.660;13.226;2023-05-07T00:55:04;49.28;;;28.80;;
27223;SDS011;14965;50.660;13.226;2023-05-07T00:57:32;59.17;;;29.30;;
27223;SDS011;14965;50.660;13.226;2023-05-07T01:00:01;49.65;;;29.08;;
27223;SDS011;14965;50.660;13.226;2023-05-07T01:02:29;50.83;;;28.55;;
27223;SDS011;14965;50.660;13.226;2023-05-07T01:04:55;54.85;;;29.52;;
27223;SDS011;14965;50.660;13.226;2023-05-07T01:07:23;49.85;;;29.05;;
27223;SDS011;14965;50.660;13.226;2023-05-07T01:09:51;48.30;;;27.65;;
27223;SDS011;14965;50.660;13.226;2023-05-07T01:14:44;48.55;;;28.60;;
27223;SDS011;14965;50.660;13.226;2023-05-07T01:17:10;49.78;;;27.75;;
27223;SDS011;14965;50.660;13.226;2023-05-07T01:19:36;50.30;;;27.52;;
27223;SDS011;14965;50.660;13.226;2023-05-07T01:22:03;49.80;;;27.70;;
27223;SDS011;14965;50.660;13.226;2023-05-07T01:24:36;50.40;;;27.05;;
27223;SDS011;14965;50.660;13.226;2023-05-07T01:27:02;48.65;;;27.17;;
27223;SDS011;14965;50.660;13.226;2023-05-07T01:29:29;45.08;;;26.02;;
27223;SDS011;14965;50.660;13.226;2023-05-07T01:31:55;41.38;;;23.48;;
27223;SDS011;14965;50.660;13.226;2023-05-07T01:34:23;45.33;;;24.55;;
27223;SDS011;14965;50.660;13.226;2023-05-07T01:36:53;39.83;;;23.35;;
27223;SDS011;14965;50.660;13.226;2023-05-07T01:39:20;40.95;;;23.63;;
27223;SDS011;14965;50.660;13.226;2023-05-07T01:41:48;39.78;;;23.08;;
27223;SDS011;14965;50.660;13.226;2023-05-07T01:44:15;39.78;;;22.60;;
27223;SDS011;14965;50.660;13.226;2023-05-07T01:46:43;37.78;;;21.40;;
27223;SDS011;14965;50.660;13.226;2023-05-07T01:49:10;41.88;;;22.77;;
27223;SDS011;14965;50.660;13.226;2023-05-07T01:51:36;37.33;;;21.55;;
27223;SDS011;14965;50.660;13.226;2023-05-07T01:54:02;41.08;;;20.77;;
27223;SDS011;14965;50.660;13.226;2023-05-07T01:56:28;40.60;;;22.08;;
27223;SDS011;14965;50.660;13.226;2023-05-07T01:58:55;42.28;;;22.42;;
27223;SDS011;14965;50.660;13.226;2023-05-07T02:01:21;36.83;;;21.83;;
27223;SDS011;14965;50.660;13.226;2023-05-07T02:03:47;38.42;;;21.80;;
27223;SDS011;14965;50.660;13.226;2023-05-07T02:06:13;40.05;;;21.35;;
27223;SDS011;14965;50.660;13.226;2023-05-07T02:08:39;34.33;;;20.92;;
27223;SDS011;14965;50.660;13.226;2023-05-07T02:11:05;36.88;;;22.15;;
27223;SDS011;14965;50.660;13.226;2023-05-07T02:13:32;36.92;;;21.25;;
27223;SDS011;14965;50.660;13.226;2023-05-07T02:16:00;38.87;;;21.87;;
27223;SDS011;14965;50.660;13.226;2023-05-07T02:18:26;38.70;;;22.80;;
27223;SDS011;14965;50.660;13.226;2023-05-07T02:20:52;37.40;;;21.17;;
27223;SDS011;14965;50.660;13.226;2023-05-07T02:23:18;44.92;;;22.33;;
27223;SDS011;14965;50.660;13.226;2023-05-07T02:25:44;35.45;;;20.85;;
27223;SDS011;14965;50.660;13.226;2023-05-07T02:28:10;37.92;;;21.20;;
27223;SDS011;14965;50.660;13.226;2023-05-07T02:30:36;38.58;;;21.88;;
27223;SDS011;14965;50.660;13.226;2023-05-07T02:33:04;36.92;;;21.15;;
27223;SDS011;14965;50.660;13.226;2023-05-07T02:35:29;37.17;;;20.88;;
27223;SDS011;14965;50.660;13.226;2023-05-07T02:37:55;39.63;;;21.90;;
27223;SDS011;14965;50.660;13.226;2023-05-07T02:40:21;37.22;;;21.83;;
27223;SDS011;14965;50.660;13.226;2023-05-07T02:42:47;40.80;;;22.23;;
27223;SDS011;14965;50.660;13.226;2023-05-07T02:45:13;40.45;;;22.40;;
27223;SDS011;14965;50.660;13.226;2023-05-07T02:47:39;40.17;;;22.10;;
27223;SDS011;14965;50.660;13.226;2023-05-07T02:50:07;36.67;;;21.17;;
27223;SDS011;14965;50.660;13.226;2023-05-07T02:52:33;38.25;;;21.23;;
27223;SDS011;14965;50.660;13.226;2023-05-07T02:54:59;37.15;;;21.00;;
27223;SDS011;14965;50.660;13.226;2023-05-07T02:57:25;39.72;;;22.60;;
27223;SDS011;14965;50.660;13.226;2023-05-07T02:59:51;33.38;;;20.05;;
27223;SDS011;14965;50.660;13.226;2023-05-07T03:02:16;39.30;;;20.73;;
27223;SDS011;14965;50.660;13.226;2023-05-07T03:04:42;36.85;;;21.00;;
27223;SDS011;14965;50.660;13.226;2023-05-07T03:07:09;36.78;;;22.35;;
27223;SDS011;14965;50.660;13.226;2023-05-07T03:09:35;37.95;;;21.20;;
27223;SDS011;14965;50.660;13.226;2023-05-07T03:12:01;35.60;;;20.60;;
27223;SDS011;14965;50.660;13.226;2023-05-07T03:14:27;37.25;;;21.08;;
27223;SDS011;14965;50.660;13.226;2023-05-07T03:16:53;35.53;;;20.65;;
27223;SDS011;14965;50.660;13.226;2023-05-07T03:19:19;37.10;;;21.63;;
27223;SDS011;14965;50.660;13.226;2023-05-07T03:21:45;35.17;;;20.17;;
27223;SDS011;14965;50.660;13.226;2023-05-07T03:24:12;35.13;;;20.27;;
27223;SDS011;14965;50.660;13.226;2023-05-07T03:26:38;39.22;;;20.92;;
27223;SDS011;14965;50.660;13.226;2023-05-07T03:29:04;35.17;;;20.80;;
27223;SDS011;14965;50.660;13.226;2023-05-07T03:31:30;33.47;;;19.42;;
27223;SDS011;14965;50.660;13.226;2023-05-07T03:33:56;35.63;;;19.40;;
27223;SDS011;14965;50.660;13.226;2023-05-07T03:36:23;33.55;;;19.60;;
27223;SDS011;14965;50.660;13.226;2023-05-07T03:38:49;33.35;;;19.77;;
27223;SDS011;14965;50.660;13.226;2023-05-07T03:41:16;37.83;;;21.30;;
27223;SDS011;14965;50.660;13.226;2023-05-07T03:43:43;37.17;;;19.38;;
27223;SDS011;14965;50.660;13.226;2023-05-07T03:46:08;32.78;;;19.52;;
27223;SDS011;14965;50.660;13.226;2023-05-07T03:48:35;31.95;;;19.00;;
27223;SDS011;14965;50.660;13.226;2023-05-07T03:51:01;34.50;;;20.20;;
27223;SDS011;14965;50.660;13.226;2023-05-07T03:53:27;34.75;;;20.05;;
27223;SDS011;14965;50.660;13.226;2023-05-07T03:55:53;37.28;;;20.40;;
27223;SDS011;14965;50.660;13.226;2023-05-07T03:58:20;35.60;;;19.35;;
27223;SDS011;14965;50.660;13.226;2023-05-07T04:00:46;34.17;;;19.60;;
27223;SDS011;14965;50.660;13.226;2023-05-07T04:03:12;33.63;;;19.98;;
27223;SDS011;14965;50.660;13.226;2023-05-07T04:05:38;36.53;;;19.55;;
27223;SDS011;14965;50.660;13.226;2023-05-07T04:08:04;37.08;;;19.65;;
27223;SDS011;14965;50.660;13.226;2023-05-07T04:10:30;32.13;;;18.85;;
27223;SDS011;14965;50.660;13.226;2023-05-07T04:12:56;33.30;;;19.90;;
27223;SDS011;14965;50.660;13.226;2023-05-07T04:15:23;32.83;;;19.08;;
27223;SDS011;14965;50.660;13.226;2023-05-07T04:17:49;34.47;;;18.50;;
27223;SDS011;14965;50.660;13.226;2023-05-07T04:20:15;32.60;;;19.08;;
27223;SDS011;14965;50.660;13.226;2023-05-07T04:22:42;32.80;;;19.10;;
27223;SDS011;14965;50.660;13.226;2023-05-07T04:25:09;36.75;;;19.55;;
27223;SDS011;14965;50.660;13.226;2023-05-07T04:27:35;34.15;;;19.58;;
27223;SDS011;14965;50.660;13.226;2023-05-07T04:30:01;32.63;;;19.02;;
27223;SDS011;14965;50.660;13.226;2023-05-07T04:32:29;34.35;;;18.70;;
27223;SDS011;14965;50.660;13.226;2023-05-07T04:34:55;35.33;;;19.73;;
27223;SDS011;14965;50.660;13.226;2023-05-07T04:37:21;32.33;;;18.63;;
27223;SDS011;14965;50.660;13.226;2023-05-07T04:39:47;32.85;;;18.70;;
27223;SDS011;14965;50.660;13.226;2023-05-07T04:42:14;31.80;;;18.30;;
27223;SDS011;14965;50.660;13.226;2023-05-07T04:44:40;32.63;;;18.25;;
27223;SDS011;14965;50.660;13.226;2023-05-07T04:47:06;32.83;;;18.70;;
27223;SDS011;14965;50.660;13.226;2023-05-07T04:49:33;32.03;;;19.15;;
27223;SDS011;14965;50.660;13.226;2023-05-07T04:51:59;30.85;;;18.13;;
27223;SDS011;14965;50.660;13.226;2023-05-07T04:54:25;33.78;;;18.38;;
27223;SDS011;14965;50.660;13.226;2023-05-07T04:56:51;31.27;;;18.85;;
27223;SDS011;14965;50.660;13.226;2023-05-07T04:59:17;34.28;;;18.05;;
27223;SDS011;14965;50.660;13.226;2023-05-07T05:01:43;33.45;;;18.10;;
27223;SDS011;14965;50.660;13.226;2023-05-07T05:04:08;30.90;;;17.83;;
27223;SDS011;14965;50.660;13.226;2023-05-07T05:06:36;30.63;;;17.50;;
27223;SDS011;14965;50.660;13.226;2023-05-07T05:09:01;32.15;;;18.17;;
27223;SDS011;14965;50.660;13.226;2023-05-07T05:11:28;30.48;;;16.98;;
27223;SDS011;14965;50.660;13.226;2023-05-07T05:13:53;34.00;;;18.65;;
27223;SDS011;14965;50.660;13.226;2023-05-07T05:16:19;28.23;;;16.98;;
27223;SDS011;14965;50.660;13.226;2023-05-07T05:18:45;31.13;;;18.08;;
27223;SDS011;14965;50.660;13.226;2023-05-07T05:21:11;29.30;;;17.27;;
27223;SDS011;14965;50.660;13.226;2023-05-07T05:23:38;28.08;;;16.25;;
27223;SDS011;14965;50.660;13.226;2023-05-07T05:26:04;34.45;;;17.98;;
27223;SDS011;14965;50.660;13.226;2023-05-07T05:28:30;27.98;;;16.88;;
27223;SDS011;14965;50.660;13.226;2023-05-07T05:30:56;32.35;;;17.63;;
27223;SDS011;14965;50.660;13.226;2023-05-07T05:33:22;30.75;;;16.85;;
27223;SDS011;14965;50.660;13.226;2023-05-07T05:35:48;29.30;;;16.65;;
27223;SDS011;14965;50.660;13.226;2023-05-07T05:38:15;30.70;;;16.63;;
27223;SDS011;14965;50.660;13.226;2023-05-07T05:40:42;30.40;;;17.05;;
27223;SDS011;14965;50.660;13.226;2023-05-07T05:43:08;27.63;;;16.10;;
27223;SDS011;14965;50.660;13.226;2023-05-07T05:45:34;28.42;;;15.85;;
27223;SDS011;14965;50.660;13.226;2023-05-07T05:47:59;26.33;;;15.35;;
27223;SDS011;14965;50.660;13.226;2023-05-07T05:50:25;25.40;;;15.95;;
27223;SDS011;14965;50.660;13.226;2023-05-07T05:52:51;28.17;;;15.63;;
27223;SDS011;14965;50.660;13.226;2023-05-07T05:55:17;25.75;;;14.65;;
27223;SDS011;14965;50.660;13.226;2023-05-07T05:57:45;27.23;;;14.70;;
27223;SDS011;14965;50.660;13.226;2023-05-07T06:00:11;21.35;;;13.98;;
27223;SDS011;14965;50.660;13.226;2023-05-07T06:02:38;22.52;;;14.30;;
27223;SDS011;14965;50.660;13.226;2023-05-07T06:05:04;24.05;;;14.65;;
27223;SDS011;14965;50.660;13.226;2023-05-07T06:07:31;26.98;;;14.95;;
27223;SDS011;14965;50.660;13.226;2023-05-07T06:09:57;26.05;;;14.93;;
27223;SDS011;14965;50.660;13.226;2023-05-07T06:12:23;24.52;;;14.57;;
27223;SDS011;14965;50.660;13.226;2023-05-07T06:14:50;24.70;;;14.77;;
27223;SDS011;14965;50.660;13.226;2023-05-07T06:17:16;27.73;;;15.05;;
27223;SDS011;14965;50.660;13.226;2023-05-07T06:19:41;25.33;;;14.95;;
27223;SDS011;14965;50.660;13.226;2023-05-07T06:22:07;24.98;;;13.90;;
27223;SDS011;14965;50.660;13.226;2023-05-07T06:24:33;23.73;;;13.93;;
27223;SDS011;14965;50.660;13.226;2023-05-07T06:26:59;23.30;;;12.52;;
27223;SDS011;14965;50.660;13.226;2023-05-07T06:29:25;21.52;;;13.02;;
27223;SDS011;14965;50.660;13.226;2023-05-07T06:31:52;23.50;;;12.73;;
27223;SDS011;14965;50.660;13.226;2023-05-07T06:34:18;19.20;;;11.75;;
27223;SDS011;14965;50.660;13.226;2023-05-07T06:36:44;21.65;;;11.77;;
27223;SDS011;14965;50.660;13.226;2023-05-07T06:39:10;20.42;;;12.35;;
27223;SDS011;14965;50.660;13.226;2023-05-07T06:41:36;21.75;;;12.40;;
27223;SDS011;14965;50.660;13.226;2023-05-07T06:44:02;20.98;;;12.18;;
27223;SDS011;14965;50.660;13.226;2023-05-07T06:46:28;21.70;;;12.27;;
27223;SDS011;14965;50.660;13.226;2023-05-07T06:48:56;18.25;;;11.75;;
27223;SDS011;14965;50.660;13.226;2023-05-07T06:51:21;17.50;;;11.50;;
27223;SDS011;14965;50.660;13.226;2023-05-07T06:53:48;19.40;;;11.57;;
27223;SDS011;14965;50.660;13.226;2023-05-07T06:56:13;18.85;;;11.02;;
27223;SDS011;14965;50.660;13.226;2023-05-07T06:58:39;16.48;;;10.15;;
27223;SDS011;14965;50.660;13.226;2023-05-07T07:01:05;18.67;;;10.60;;
27223;SDS011;14965;50.660;13.226;2023-05-07T07:03:31;18.20;;;11.05;;
27223;SDS011;14965;50.660;13.226;2023-05-07T07:05:58;35.70;;;18.95;;
27223;SDS011;14965;50.660;13.226;2023-05-07T07:08:24;19.02;;;11.55;;
27223;SDS011;14965;50.660;13.226;2023-05-07T07:10:50;19.70;;;11.57;;
27223;SDS011;14965;50.660;13.226;2023-05-07T07:13:16;17.92;;;10.75;;
27223;SDS011;14965;50.660;13.226;2023-05-07T07:15:43;15.60;;;10.18;;
27223;SDS011;14965;50.660;13.226;2023-05-07T07:18:08;18.48;;;10.98;;
27223;SDS011;14965;50.660;13.226;2023-05-07T07:20:34;12.82;;;8.63;;
27223;SDS011;14965;50.660;13.226;2023-05-07T07:23:02;14.85;;;9.32;;
27223;SDS011;14965;50.660;13.226;2023-05-07T07:25:27;12.50;;;8.55;;
27223;SDS011;14965;50.660;13.226;2023-05-07T07:27:53;12.70;;;8.27;;
27223;SDS011;14965;50.660;13.226;2023-05-07T07:30:19;12.75;;;8.07;;
27223;SDS011;14965;50.660;13.226;2023-05-07T07:32:45;14.27;;;8.07;;
27223;SDS011;14965;50.660;13.226;2023-05-07T07:35:11;12.25;;;8.05;;
27223;SDS011;14965;50.660;13.226;2023-05-07T07:37:37;12.32;;;8.07;;
27223;SDS011;14965;50.660;13.226;2023-05-07T07:40:05;12.93;;;8.13;;
27223;SDS011;14965;50.660;13.226;2023-05-07T07:42:32;11.77;;;7.18;;
27223;SDS011;14965;50.660;13.226;2023-05-07T07:44:58;13.25;;;8.25;;
27223;SDS011;14965;50.660;13.226;2023-05-07T07:47:24;16.48;;;10.48;;
27223;SDS011;14965;50.660;13.226;2023-05-07T07:49:50;14.27;;;8.98;;
27223;SDS011;14965;50.660;13.226;2023-05-07T07:52:16;16.92;;;10.98;;
27223;SDS011;14965;50.660;13.226;2023-05-07T07:54:42;12.52;;;8.48;;
27223;SDS011;14965;50.660;13.226;2023-05-07T07:57:09;15.82;;;9.65;;
27223;SDS011;14965;50.660;13.226;2023-05-07T07:59:35;19.92;;;12.65;;
27223;SDS011;14965;50.660;13.226;2023-05-07T08:02:01;17.73;;;9.73;;
27223;SDS011;14965;50.660;13.226;2023-05-07T08:04:27;13.82;;;9.50;;
27223;SDS011;14965;50.660;13.226;2023-05-07T08:06:53;15.23;;;9.52;;
27223;SDS011;14965;50.660;13.226;2023-05-07T08:09:19;13.73;;;8.70;;
27223;SDS011;14965;50.660;13.226;2023-05-07T08:11:45;12.25;;;7.85;;
27223;SDS011;14965;50.660;13.226;2023-05-07T08:14:12;11.82;;;7.45;;
27223;SDS011;14965;50.660;13.226;2023-05-07T08:16:38;12.30;;;7.53;;
27223;SDS011;14965;50.660;13.226;2023-05-07T08:19:04;13.55;;;8.73;;
27223;SDS011;14965;50.660;13.226;2023-05-07T08:21:30;14.95;;;9.18;;
27223;SDS011;14965;50.660;13.226;2023-05-07T08:23:56;13.80;;;8.77;;
27223;SDS011;14965;50.660;13.226;2023-05-07T08:26:22;13.55;;;9.23;;
27223;SDS011;14965;50.660;13.226;2023-05-07T08:28:48;13.27;;;8.85;;
27223;SDS011;14965;50.660;13.226;2023-05-07T08:31:15;14.80;;;9.10;;
27223;SDS011;14965;50.660;13.226;2023-05-07T08:33:41;13.15;;;8.57;;
27223;SDS011;14965;50.660;13.226;2023-05-07T08:36:07;11.75;;;7.80;;
27223;SDS011;14965;50.660;13.226;2023-05-07T08:38:33;13.70;;;9.05;;
27223;SDS011;14965;50.660;13.226;2023-05-07T08:40:58;13.38;;;8.55;;
27223;SDS011;14965;50.660;13.226;2023-05-07T08:43:25;12.75;;;8.68;;
27223;SDS011;14965;50.660;13.226;2023-05-07T08:45:53;13.07;;;8.90;;
27223;SDS011;14965;50.660;13.226;2023-05-07T08:48:22;12.65;;;8.38;;
27223;SDS011;14965;50.660;13.226;2023-05-07T08:50:50;11.82;;;8.13;;
27223;SDS011;14965;50.660;13.226;2023-05-07T08:53:17;12.02;;;8.00;;
27223;SDS011;14965;50.660;13.226;2023-05-07T08:55:45;13.93;;;8.23;;
27223;SDS011;14965;50.660;13.226;2023-05-07T08:58:12;12.07;;;8.55;;
27223;SDS011;14965;50.660;13.226;2023-05-07T09:00:39;10.95;;;7.40;;
27223;SDS011;14965;50.660;13.226;2023-05-07T09:03:06;11.85;;;7.75;;
27223;SDS011;14965;50.660;13.226;2023-05-07T09:05:34;10.75;;;7.28;;
27223;SDS011;14965;50.660;13.226;2023-05-07T09:08:00;11.52;;;6.88;;
27223;SDS011;14965;50.660;13.226;2023-05-07T09:10:28;8.95;;;6.38;;
27223;SDS011;14965;50.660;13.226;2023-05-07T09:12:57;10.00;;;6.75;;
27223;SDS011;14965;50.660;13.226;2023-05-07T09:15:23;10.32;;;7.40;;
27223;SDS011;14965;50.660;13.226;2023-05-07T09:17:49;9.23;;;6.97;;
27223;SDS011;14965;50.660;13.226;2023-05-07T09:20:15;14.27;;;9.30;;
27223;SDS011;14965;50.660;13.226;2023-05-07T09:22:43;10.07;;;6.97;;
27223;SDS011;14965;50.660;13.226;2023-05-07T09:25:09;8.40;;;6.22;;
27223;SDS011;14965;50.660;13.226;2023-05-07T09:27:35;9.30;;;6.32;;
27223;SDS011;14965;50.660;13.226;2023-05-07T09:30:03;7.93;;;5.85;;
27223;SDS011;14965;50.660;13.226;2023-05-07T09:32:29;8.00;;;6.07;;
27223;SDS011;14965;50.660;13.226;2023-05-07T09:34:59;8.32;;;6.15;;
27223;SDS011;14965;50.660;13.226;2023-05-07T09:37:25;8.00;;;5.50;;
27223;SDS011;14965;50.660;13.226;2023-05-07T09:39:53;9.05;;;6.22;;
27223;SDS011;14965;50.660;13.226;2023-05-07T09:42:22;9.27;;;6.68;;
27223;SDS011;14965;50.660;13.226;2023-05-07T09:44:51;8.27;;;5.70;;
27223;SDS011;14965;50.660;13.226;2023-05-07T09:47:18;9.30;;;6.27;;
27223;SDS011;14965;50.660;13.226;2023-05-07T09:49:46;77.70;;;47.45;;
27223;SDS011;14965;50.660;13.226;2023-05-07T09:52:13;9.68;;;5.97;;
27223;SDS011;14965;50.660;13.226;2023-05-07T09:54:40;9.00;;;6.15;;
27223;SDS011;14965;50.660;13.226;2023-05-07T09:57:09;7.60;;;5.80;;
27223;SDS011;14965;50.660;13.226;2023-05-07T09:59:38;9.32;;;6.63;;
27223;SDS011;14965;50.660;13.226;2023-05-07T10:02:09;9.52;;;6.47;;
27223;SDS011;14965;50.660;13.226;2023-05-07T10:04:36;8.55;;;6.15;;
27223;SDS011;14965;50.660;13.226;2023-05-07T10:07:03;8.82;;;6.40;;
27223;SDS011;14965;50.660;13.226;2023-05-07T10:09:31;8.07;;;6.05;;
27223;SDS011;14965;50.660;13.226;2023-05-07T10:11:57;9.00;;;6.35;;
27223;SDS011;14965;50.660;13.226;2023-05-07T10:14:26;9.80;;;6.40;;
27223;SDS011;14965;50.660;13.226;2023-05-07T10:17:13;8.60;;;6.80;;
27223;SDS011;14965;50.660;13.226;2023-05-07T10:19:45;8.77;;;6.97;;
27223;SDS011;14965;50.660;13.226;2023-05-07T10:22:11;8.45;;;6.70;;
27223;SDS011;14965;50.660;13.226;2023-05-07T10:24:41;7.57;;;6.20;;
27223;SDS011;14965;50.660;13.226;2023-05-07T10:27:13;8.80;;;6.95;;
27223;SDS011;14965;50.660;13.226;2023-05-07T10:29:48;10.05;;;6.93;;
27223;SDS011;14965;50.660;13.226;2023-05-07T10:32:42;10.43;;;7.13;;
27223;SDS011;14965;50.660;13.226;2023-05-07T10:35:16;8.18;;;6.53;;
27223;SDS011;14965;50.660;13.226;2023-05-07T10:38:07;9.13;;;6.85;;
27223;SDS011;14965;50.660;13.226;2023-05-07T10:40:34;8.90;;;6.28;;
27223;SDS011;14965;50.660;13.226;2023-05-07T10:43:02;9.25;;;7.35;;
27223;SDS011;14965;50.660;13.226;2023-05-07T10:45:31;8.65;;;6.72;;
27223;SDS011;14965;50.660;13.226;2023-05-07T10:55:18;7.35;;;6.05;;
27223;SDS011;14965;50.660;13.226;2023-05-07T10:58:25;7.35;;;6.20;;
27223;SDS011;14965;50.660;13.226;2023-05-07T11:06:47;7.45;;;5.93;;
27223;SDS011;14965;50.660;13.226;2023-05-07T11:10:00;6.13;;;5.15;;
27223;SDS011;14965;50.660;13.226;2023-05-07T11:18:52;5.55;;;5.00;;
27223;SDS011;14965;50.660;13.226;2023-05-07T11:21:32;5.93;;;5.05;;
27223;SDS011;14965;50.660;13.226;2023-05-07T11:24:07;5.10;;;4.60;;
27223;SDS011;14965;50.660;13.226;2023-05-07T11:26:42;5.05;;;4.50;;
27223;SDS011;14965;50.660;13.226;2023-05-07T11:29:17;5.38;;;4.60;;
27223;SDS011;14965;50.660;13.226;2023-05-07T11:31:51;5.80;;;4.65;;
27223;SDS011;14965;50.660;13.226;2023-05-07T11:34:28;5.53;;;4.50;;
27223;SDS011;14965;50.660;13.226;2023-05-07T11:36:55;4.57;;;4.13;;
27223;SDS011;14965;50.660;13.226;2023-05-07T11:39:29;4.82;;;3.80;;
27223;SDS011;14965;50.660;13.226;2023-05-07T11:44:25;5.18;;;4.18;;
27223;SDS011;14965;50.660;13.226;2023-05-07T11:47:12;4.70;;;4.20;;
27223;SDS011;14965;50.660;13.226;2023-05-07T11:49:44;5.13;;;3.92;;
27223;SDS011;14965;50.660;13.226;2023-05-07T11:52:15;5.57;;;4.03;;
27223;SDS011;14965;50.660;13.226;2023-05-07T11:54:49;4.32;;;3.67;;
27223;SDS011;14965;50.660;13.226;2023-05-07T11:59:52;5.55;;;3.90;;
27223;SDS011;14965;50.660;13.226;2023-05-07T12:02:18;4.75;;;4.25;;
27223;SDS011;14965;50.660;13.226;2023-05-07T12:04:44;4.35;;;3.95;;
27223;SDS011;14965;50.660;13.226;2023-05-07T12:07:15;7.75;;;3.80;;
27223;SDS011;14965;50.660;13.226;2023-05-07T12:09:42;6.75;;;4.10;;
27223;SDS011;14965;50.660;13.226;2023-05-07T12:12:13;4.75;;;3.90;;
27223;SDS011;14965;50.660;13.226;2023-05-07T12:14:45;5.35;;;4.10;;
27223;SDS011;14965;50.660;13.226;2023-05-07T12:17:14;5.05;;;4.55;;
27223;SDS011;14965;50.660;13.226;2023-05-07T12:19:42;5.35;;;4.55;;
27223;SDS011;14965;50.660;13.226;2023-05-07T12:22:12;5.93;;;4.88;;
27223;SDS011;14965;50.660;13.226;2023-05-07T12:24:42;5.40;;;4.60;;
27223;SDS011;14965;50.660;13.226;2023-05-07T12:27:14;5.43;;;4.70;;
27223;SDS011;14965;50.660;13.226;2023-05-07T12:29:43;5.68;;;5.07;;
27223;SDS011;14965;50.660;13.226;2023-05-07T12:32:13;5.35;;;4.82;;
27223;SDS011;14965;50.660;13.226;2023-05-07T12:34:39;5.57;;;4.90;;
27223;SDS011;14965;50.660;13.226;2023-05-07T12:37:07;5.20;;;4.70;;
27223;SDS011;14965;50.660;13.226;2023-05-07T12:39:36;5.90;;;5.30;;
27223;SDS011;14965;50.660;13.226;2023-05-07T12:42:02;6.90;;;5.40;;
27223;SDS011;14965;50.660;13.226;2023-05-07T12:44:30;6.03;;;5.03;;
27223;SDS011;14965;50.660;13.226;2023-05-07T12:47:01;6.95;;;5.90;;
27223;SDS011;14965;50.660;13.226;2023-05-07T12:49:31;6.07;;;5.47;;
27223;SDS011;14965;50.660;13.226;2023-05-07T12:51:59;5.90;;;5.30;;
27223;SDS011;14965;50.660;13.226;2023-05-07T12:54:31;6.30;;;5.70;;
27223;SDS011;14965;50.660;13.226;2023-05-07T12:57:18;6.97;;;5.38;;
27223;SDS011;14965;50.660;13.226;2023-05-07T13:00:06;6.20;;;5.60;;
27223;SDS011;14965;50.660;13.226;2023-05-07T13:02:33;6.95;;;6.05;;
27223;SDS011;14965;50.660;13.226;2023-05-07T13:05:27;6.60;;;5.55;;
27223;SDS011;14965;50.660;13.226;2023-05-07T13:07:53;5.82;;;5.22;;
27223;SDS011;14965;50.660;13.226;2023-05-07T13:10:23;6.43;;;5.22;;
27223;SDS011;14965;50.660;13.226;2023-05-07T13:12:52;6.05;;;5.45;;
27223;SDS011;14965;50.660;13.226;2023-05-07T13:15:26;5.60;;;5.00;;
27223;SDS011;14965;50.660;13.226;2023-05-07T13:17:57;6.55;;;5.55;;
27223;SDS011;14965;50.660;13.226;2023-05-07T13:20:23;7.22;;;5.07;;
27223;SDS011;14965;50.660;13.226;2023-05-07T13:23:19;5.63;;;4.80;;
27223;SDS011;14965;50.660;13.226;2023-05-07T13:25:56;6.72;;;5.07;;
27223;SDS011;14965;50.660;13.226;2023-05-07T13:28:28;5.70;;;5.10;;
27223;SDS011;14965;50.660;13.226;2023-05-07T13:30:55;5.82;;;4.95;;
27223;SDS011;14965;50.660;13.226;2023-05-07T13:33:48;5.80;;;5.07;;
27223;SDS011;14965;50.660;13.226;2023-05-07T13:36:14;5.40;;;4.70;;
27223;SDS011;14965;50.660;13.226;2023-05-07T13:39:46;5.47;;;4.85;;
27223;SDS011;14965;50.660;13.226;2023-05-07T13:41:56;5.22;;;4.60;;
27223;SDS011;14965;50.660;13.226;2023-05-07T13:44:26;6.80;;;5.05;;
27223;SDS011;14965;50.660;13.226;2023-05-07T13:47:22;6.78;;;5.18;;
27223;SDS011;14965;50.660;13.226;2023-05-07T13:49:48;4.72;;;4.30;;
27223;SDS011;14965;50.660;13.226;2023-05-07T13:52:15;5.57;;;4.57;;
27223;SDS011;14965;50.660;13.226;2023-05-07T13:54:47;5.38;;;4.55;;
27223;SDS011;14965;50.660;13.226;2023-05-07T13:57:15;5.40;;;4.90;;
27223;SDS011;14965;50.660;13.226;2023-05-07T13:59:57;6.40;;;4.57;;
27223;SDS011;14965;50.660;13.226;2023-05-07T14:05:51;4.82;;;4.38;;
27223;SDS011;14965;50.660;13.226;2023-05-07T14:09:20;6.13;;;4.97;;
27223;SDS011;14965;50.660;13.226;2023-05-07T14:11:09;5.22;;;4.57;;
27223;SDS011;14965;50.660;13.226;2023-05-07T14:13:40;5.30;;;4.80;;
27223;SDS011;14965;50.660;13.226;2023-05-07T14:16:26;7.35;;;4.55;;
27223;SDS011;14965;50.660;13.226;2023-05-07T14:19:20;5.82;;;4.63;;
27223;SDS011;14965;50.660;13.226;2023-05-07T14:21:46;5.22;;;4.72;;
27223;SDS011;14965;50.660;13.226;2023-05-07T14:24:12;5.60;;;4.93;;
27223;SDS011;14965;50.660;13.226;2023-05-07T14:26:40;5.90;;;5.00;;
27223;SDS011;14965;50.660;13.226;2023-05-07T14:29:06;5.32;;;4.78;;
27223;SDS011;14965;50.660;13.226;2023-05-07T14:31:32;5.57;;;4.82;;
27223;SDS011;14965;50.660;13.226;2023-05-07T14:34:01;6.20;;;4.72;;
27223;SDS011;14965;50.660;13.226;2023-05-07T14:36:36;5.30;;;4.63;;
27223;SDS011;14965;50.660;13.226;2023-05-07T14:39:02;6.25;;;4.93;;
27223;SDS011;14965;50.660;13.226;2023-05-07T14:41:29;6.75;;;4.80;;
27223;SDS011;14965;50.660;13.226;2023-05-07T14:43:55;5.82;;;4.70;;
27223;SDS011;14965;50.660;13.226;2023-05-07T14:46:56;5.68;;;5.13;;
27223;SDS011;14965;50.660;13.226;2023-05-07T14:49:58;6.00;;;5.40;;
27223;SDS011;14965;50.660;13.226;2023-05-07T14:52:23;9.82;;;7.82;;
27223;SDS011;14965;50.660;13.226;2023-05-07T14:57:38;8.13;;;5.80;;
27223;SDS011;14965;50.660;13.226;2023-05-07T15:00:04;7.07;;;6.00;;
27223;SDS011;14965;50.660;13.226;2023-05-07T15:02:32;6.88;;;5.97;;